createdAt,value
2019-05-30T00:01:45.950Z,4.83
2019-05-30T00:04:20.898Z,4.73
2019-05-30T00:06:54.186Z,7.00
2019-05-30T00:09:26.540Z,5.37
2019-05-30T00:12:05.089Z,4.90
2019-05-30T00:14:35.076Z,4.00
2019-05-30T00:17:06.917Z,4.87
2019-05-30T00:19:43.247Z,2.50
2019-05-30T00:22:13.229Z,3.33
2019-05-30T00:24:42.352Z,4.60
2019-05-30T00:27:13.777Z,3.27
2019-05-30T00:29:44.882Z,3.40
2019-05-30T00:32:20.736Z,2.87
2019-05-30T00:34:55.576Z,5.83
2019-05-30T00:37:35.090Z,3.40
2019-05-30T00:40:31.197Z,3.03
2019-05-30T00:43:06.315Z,4.53
2019-05-30T00:45:42.249Z,5.17
2019-05-30T00:48:11.637Z,3.73
2019-05-30T00:50:47.272Z,4.27
2019-05-30T00:53:19.668Z,4.07
2019-05-30T00:55:49.787Z,4.60
2019-05-30T00:58:20.954Z,5.00
2019-05-30T01:00:51.958Z,5.63
2019-05-30T01:03:24.340Z,4.83
2019-05-30T01:05:54.763Z,5.70
2019-05-30T01:08:27.259Z,5.07
2019-05-30T01:10:59.491Z,7.20
2019-05-30T01:13:29.922Z,8.03
2019-05-30T01:16:01.403Z,4.50
2019-05-30T01:18:33.476Z,6.73
2019-05-30T01:21:05.290Z,5.07
2019-05-30T01:23:41.888Z,7.53
2019-05-30T01:26:14.119Z,6.87
2019-05-30T01:28:45.234Z,11.30
2019-05-30T01:31:28.860Z,6.43
2019-05-30T01:33:59.492Z,8.00
2019-05-30T01:36:29.440Z,7.30
2019-05-30T01:39:00.332Z,6.30
2019-05-30T01:41:31.364Z,6.67
2019-05-30T01:44:04.456Z,9.50
2019-05-30T01:46:36.810Z,8.60
2019-05-30T01:49:06.805Z,7.80
2019-05-30T01:51:37.973Z,7.60
2019-05-30T01:54:12.615Z,9.70
2019-05-30T01:56:44.027Z,11.40
2019-05-30T01:59:13.146Z,9.13
2019-05-30T02:01:49.539Z,9.47
2019-05-30T02:04:19.962Z,7.37
2019-05-30T02:06:49.403Z,7.67
2019-05-30T02:09:20.349Z,8.33
2019-05-30T02:11:51.417Z,10.23
2019-05-30T02:14:20.597Z,9.63
2019-05-30T02:16:56.436Z,8.87
2019-05-30T02:19:26.738Z,7.93
2019-05-30T02:21:58.073Z,8.33
2019-05-30T02:24:30.364Z,13.83
2019-05-30T02:27:02.102Z,9.70
2019-05-30T02:29:31.467Z,9.23
2019-05-30T02:32:02.954Z,10.37
2019-05-30T02:34:33.023Z,9.53
2019-05-30T02:37:05.657Z,10.33
2019-05-30T02:39:36.282Z,13.20
2019-05-30T02:42:07.140Z,11.93
2019-05-30T02:44:36.877Z,14.07
2019-05-30T02:47:07.368Z,11.87
2019-05-30T02:52:30.510Z,10.80
2019-05-30T02:55:06.636Z,11.07
2019-05-30T02:57:35.566Z,11.63
2019-05-30T03:00:12.349Z,12.10
2019-05-30T03:02:43.076Z,11.40
2019-05-30T03:05:15.438Z,12.93
2019-05-30T03:07:47.211Z,12.13
2019-05-30T03:10:24.417Z,14.37
2019-05-30T03:13:01.795Z,12.20
2019-05-30T03:15:35.854Z,13.17
2019-05-30T03:18:10.376Z,14.30
2019-05-30T03:20:42.495Z,13.53
2019-05-30T03:23:15.001Z,15.47
2019-05-30T03:25:55.106Z,14.37
2019-05-30T03:28:24.366Z,12.93
2019-05-30T03:31:27.335Z,16.50
2019-05-30T03:33:48.063Z,13.87
2019-05-30T03:36:28.367Z,14.83
2019-05-30T03:38:52.681Z,15.63
2019-05-30T03:41:32.661Z,18.43
2019-05-30T03:44:04.347Z,13.80
2019-05-30T03:46:40.521Z,17.30
2019-05-30T03:49:16.413Z,16.67
2019-05-30T03:51:51.453Z,18.50
2019-05-30T03:54:22.416Z,17.60
2019-05-30T03:57:01.976Z,18.37
2019-05-30T03:59:41.004Z,22.40
2019-05-30T04:02:55.986Z,21.43
2019-05-30T04:05:19.298Z,18.97
2019-05-30T04:07:53.848Z,18.10
2019-05-30T04:10:29.580Z,21.30
2019-05-30T04:13:28.665Z,18.33
2019-05-30T04:15:57.885Z,20.43
2019-05-30T04:18:27.262Z,19.70
2019-05-30T04:20:58.922Z,23.97
2019-05-30T04:23:34.694Z,23.70
2019-05-30T04:26:05.244Z,22.87
2019-05-30T04:28:36.333Z,20.20
2019-05-30T04:31:12.342Z,18.20
2019-05-30T04:33:41.419Z,16.53
2019-05-30T04:36:12.477Z,15.97
2019-05-30T04:38:54.354Z,17.80
2019-05-30T04:41:24.711Z,17.10
2019-05-30T04:43:56.144Z,18.30
2019-05-30T04:46:35.973Z,18.10
2019-05-30T04:49:12.177Z,19.03
2019-05-30T04:51:41.375Z,15.67
2019-05-30T04:54:21.555Z,17.87
2019-05-30T04:56:53.465Z,16.57
2019-05-30T04:59:28.733Z,17.30
2019-05-30T05:01:58.034Z,19.50
2019-05-30T05:04:40.294Z,20.10
2019-05-30T05:07:11.517Z,18.40
2019-05-30T05:09:41.921Z,18.43
2019-05-30T05:12:12.069Z,19.63
2019-05-30T05:14:41.981Z,18.47
2019-05-30T05:17:12.739Z,20.97
2019-05-30T05:19:41.950Z,21.13
2019-05-30T05:22:11.126Z,16.47
2019-05-30T05:24:40.350Z,17.43
2019-05-30T05:27:10.189Z,17.63
2019-05-30T05:29:39.472Z,15.27
2019-05-30T05:32:08.864Z,17.07
2019-05-30T05:34:38.043Z,16.37
2019-05-30T05:37:07.264Z,13.60
2019-05-30T05:39:36.512Z,14.00
2019-05-30T05:42:05.638Z,12.97
2019-05-30T05:44:34.767Z,12.20
2019-05-30T05:47:03.953Z,15.47
2019-05-30T05:49:33.132Z,17.40
2019-05-30T05:52:02.318Z,16.07
2019-05-30T05:54:31.430Z,16.70
2019-05-30T05:57:00.570Z,17.47
2019-05-30T05:59:29.696Z,18.47
2019-05-30T06:01:59.038Z,19.30
2019-05-30T06:04:28.279Z,20.87
2019-05-30T06:06:57.480Z,18.80
2019-05-30T06:09:26.747Z,18.63
2019-05-30T06:11:55.978Z,19.47
2019-05-30T06:14:26.203Z,22.03
2019-05-30T06:16:56.076Z,19.77
2019-05-30T06:19:25.508Z,18.83
2019-05-30T06:21:56.078Z,15.70
2019-05-30T06:24:25.706Z,19.73
2019-05-30T06:26:54.926Z,17.43
2019-05-30T06:29:24.193Z,19.20
2019-05-30T06:31:53.591Z,21.23
2019-05-30T06:34:32.840Z,18.83
2019-05-30T06:36:53.788Z,19.27
2019-05-30T06:39:23.464Z,23.17
2019-05-30T06:41:52.845Z,19.40
2019-05-30T06:44:22.077Z,18.93
2019-05-30T06:46:52.450Z,18.63
2019-05-30T06:49:22.795Z,20.20
2019-05-30T06:51:52.180Z,23.43
2019-05-30T06:54:22.063Z,18.97
2019-05-30T06:56:52.377Z,17.20
2019-05-30T06:59:21.504Z,20.00
2019-05-30T07:01:52.251Z,21.63
2019-05-30T07:04:23.150Z,18.80
2019-05-30T07:06:52.681Z,16.47
2019-05-30T07:09:22.668Z,20.80
2019-05-30T07:11:51.894Z,15.33
2019-05-30T07:14:21.072Z,18.43
2019-05-30T07:16:50.584Z,21.83
2019-05-30T07:19:19.706Z,19.93
2019-05-30T07:21:51.327Z,16.87
2019-05-30T07:24:20.451Z,22.27
2019-05-30T07:26:50.881Z,21.90
2019-05-30T07:29:21.022Z,17.50
2019-05-30T07:31:50.255Z,16.03
2019-05-30T07:34:21.551Z,19.13
2019-05-30T07:36:50.763Z,13.20
2019-05-30T07:39:20.117Z,15.13
2019-05-30T07:42:05.336Z,17.23
2019-05-30T07:44:21.491Z,16.90
2019-05-30T07:46:50.730Z,20.10
2019-05-30T07:49:20.032Z,24.40
2019-05-30T07:51:49.186Z,16.20
2019-05-30T07:54:20.414Z,13.43
2019-05-30T07:56:49.552Z,21.23
2019-05-30T07:59:19.686Z,16.07
2019-05-30T08:01:51.303Z,14.40
2019-05-30T08:04:20.489Z,12.67
2019-05-30T08:06:50.075Z,16.73
2019-05-30T08:09:19.383Z,19.50
2019-05-30T08:11:50.664Z,18.07
2019-05-30T08:14:19.904Z,20.07
2019-05-30T08:16:49.182Z,16.47
2019-05-30T08:19:18.420Z,20.27
2019-05-30T08:21:47.685Z,15.93
2019-05-30T08:24:16.875Z,19.00
2019-05-30T08:26:46.260Z,13.70
2019-05-30T08:29:15.452Z,14.47
2019-05-30T08:31:44.792Z,13.73
2019-05-30T08:34:13.956Z,13.53
2019-05-30T08:36:43.322Z,16.43
2019-05-30T08:39:12.512Z,14.47
2019-05-30T08:41:42.868Z,17.27
2019-05-30T08:44:25.341Z,15.97
2019-05-30T08:46:52.139Z,13.67
2019-05-30T08:49:21.404Z,14.30
2019-05-30T08:51:50.550Z,24.87
2019-05-30T08:54:23.556Z,12.87
2019-05-30T08:56:56.005Z,12.13
2019-05-30T08:59:25.630Z,18.20
2019-05-30T09:01:54.864Z,12.93
2019-05-30T09:04:24.120Z,14.40
2019-05-30T09:06:53.363Z,13.33
2019-05-30T09:09:22.776Z,15.77
2019-05-30T09:11:52.075Z,14.03
2019-05-30T09:14:21.230Z,15.93
2019-05-30T09:16:51.129Z,19.33
2019-05-30T09:19:20.467Z,15.63
2019-05-30T09:21:49.756Z,15.37
2019-05-30T09:24:18.890Z,13.53
2019-05-30T09:26:50.323Z,17.87
2019-05-30T09:29:19.077Z,17.80
2019-05-30T09:31:48.715Z,10.80
2019-05-30T09:34:18.088Z,16.33
2019-05-30T09:36:47.413Z,14.40
2019-05-30T09:39:16.575Z,11.43
2019-05-30T09:41:45.804Z,14.17
2019-05-30T09:44:15.089Z,16.83
2019-05-30T09:46:44.339Z,9.43
2019-05-30T09:49:14.950Z,16.07
2019-05-30T09:51:45.220Z,13.63
2019-05-30T09:54:15.501Z,8.27
2019-05-30T09:56:44.985Z,11.73
2019-05-30T09:59:16.862Z,18.37
2019-05-30T10:01:50.040Z,12.20
2019-05-30T10:04:30.035Z,17.47
2019-05-30T10:07:00.841Z,12.93
2019-05-30T10:09:30.053Z,15.67
2019-05-30T10:12:00.120Z,13.33
2019-05-30T10:14:29.748Z,14.10
2019-05-30T10:16:59.186Z,11.67
2019-05-30T10:19:28.455Z,11.80
2019-05-30T10:21:57.652Z,12.93
2019-05-30T10:24:26.773Z,9.37
2019-05-30T10:26:58.410Z,11.70
2019-05-30T10:29:28.049Z,16.80
2019-05-30T10:31:57.328Z,13.87
2019-05-30T10:34:26.661Z,13.57
2019-05-30T10:37:02.432Z,16.17
2019-05-30T10:39:33.418Z,11.90
2019-05-30T10:42:02.716Z,14.13
2019-05-30T10:44:33.289Z,12.10
2019-05-30T10:47:02.453Z,12.57
2019-05-30T10:49:35.065Z,14.70
2019-05-30T10:52:03.099Z,17.70
2019-05-30T10:54:32.372Z,16.20
2019-05-30T10:57:02.862Z,9.47
2019-05-30T10:59:32.089Z,11.87
2019-05-30T11:02:01.210Z,13.57
2019-05-30T11:04:30.420Z,14.27
2019-05-30T11:07:11.700Z,11.40
2019-05-30T11:09:44.127Z,11.37
2019-05-30T11:12:13.864Z,9.03
2019-05-30T11:14:43.183Z,8.13
2019-05-30T11:17:12.468Z,8.30
2019-05-30T11:19:41.657Z,9.60
2019-05-30T11:22:10.987Z,10.90
2019-05-30T11:24:40.279Z,12.40
2019-05-30T11:27:09.623Z,10.30
2019-05-30T11:29:38.756Z,14.20
2019-05-30T11:32:10.012Z,11.63
2019-05-30T11:34:39.188Z,9.43
2019-05-30T11:37:18.537Z,12.27
2019-05-30T11:39:39.387Z,11.10
2019-05-30T11:42:08.516Z,11.60
2019-05-30T11:44:37.699Z,12.90
2019-05-30T11:47:06.943Z,7.87
2019-05-30T11:49:36.156Z,9.97
2019-05-30T11:52:05.370Z,13.03
2019-05-30T11:54:34.555Z,7.23
2019-05-30T11:57:03.720Z,11.53
2019-05-30T11:59:32.852Z,7.80
2019-05-30T12:02:02.131Z,7.53
2019-05-30T12:04:31.604Z,11.50
2019-05-30T12:07:00.958Z,9.80
2019-05-30T12:09:30.318Z,10.23
2019-05-30T12:11:59.554Z,11.40
2019-05-30T12:14:28.729Z,12.30
2019-05-30T12:16:57.996Z,12.77
2019-05-30T12:19:27.398Z,10.27
2019-05-30T12:21:57.701Z,16.30
2019-05-30T12:24:26.919Z,19.93
2019-05-30T12:26:56.083Z,10.60
2019-05-30T12:29:25.220Z,13.73
2019-05-30T12:31:57.572Z,13.47
2019-05-30T12:34:25.761Z,11.23
2019-05-30T12:36:54.971Z,8.77
2019-05-30T12:39:24.260Z,14.20
2019-05-30T12:41:53.398Z,13.67
2019-05-30T12:44:22.607Z,11.77
2019-05-30T12:46:53.210Z,15.67
2019-05-30T12:49:22.627Z,13.53
2019-05-30T12:51:52.008Z,13.07
2019-05-30T12:54:21.177Z,17.23
2019-05-30T12:56:50.437Z,17.80
2019-05-30T12:59:19.600Z,15.87
2019-05-30T13:01:49.181Z,15.93
2019-05-30T13:04:18.473Z,12.63
2019-05-30T13:06:47.613Z,20.03
2019-05-30T13:09:16.785Z,15.53
2019-05-30T13:11:45.977Z,16.00
2019-05-30T13:14:15.215Z,14.90
2019-05-30T13:16:47.471Z,12.90
2019-05-30T13:19:17.162Z,11.73
2019-05-30T13:21:47.631Z,10.30
2019-05-30T13:24:16.792Z,11.30
2019-05-30T13:26:47.592Z,9.07
2019-05-30T13:29:16.771Z,11.80
2019-05-30T13:31:48.331Z,15.13
2019-05-30T13:34:17.536Z,8.57
2019-05-30T13:36:47.943Z,10.03
2019-05-30T13:39:17.277Z,7.70
2019-05-30T13:41:46.568Z,9.57
2019-05-30T13:44:15.839Z,9.20
2019-05-30T13:46:44.996Z,7.73
2019-05-30T13:49:14.123Z,8.43
2019-05-30T13:51:43.268Z,8.77
2019-05-30T13:54:12.467Z,7.43
2019-05-30T13:56:41.605Z,6.93
2019-05-30T13:59:10.840Z,6.90
2019-05-30T14:01:40.096Z,8.67
2019-05-30T14:04:10.358Z,12.27
2019-05-30T14:06:39.774Z,9.03
2019-05-30T14:09:10.952Z,8.47
2019-05-30T14:11:40.166Z,8.77
2019-05-30T14:14:09.338Z,8.63
2019-05-30T14:16:38.488Z,8.77
2019-05-30T14:19:10.767Z,6.67
2019-05-30T14:21:38.589Z,6.60
2019-05-30T14:24:09.235Z,8.87
2019-05-30T14:26:38.791Z,6.03
2019-05-30T14:29:09.754Z,11.30
2019-05-30T14:31:39.150Z,6.53
2019-05-30T14:34:08.335Z,7.20
2019-05-30T14:36:38.626Z,5.67
2019-05-30T14:39:09.021Z,8.53
2019-05-30T14:41:38.351Z,5.37
2019-05-30T14:44:07.605Z,7.37
2019-05-30T14:46:36.752Z,5.97
2019-05-30T14:49:06.498Z,5.40
2019-05-30T14:51:37.939Z,5.73
2019-05-30T14:54:07.117Z,4.43
2019-05-30T14:56:36.390Z,4.50
2019-05-30T14:59:06.808Z,4.07
2019-05-30T15:01:36.628Z,3.87
2019-05-30T15:04:07.056Z,13.97
2019-05-30T15:06:36.695Z,3.08
2019-05-30T15:09:20.100Z,6.10
2019-05-30T15:11:39.352Z,5.65
2019-05-30T15:14:08.815Z,4.42
2019-05-30T15:16:38.048Z,3.72
2019-05-30T15:19:08.103Z,2.12
2019-05-30T15:21:37.566Z,5.72
2019-05-30T15:24:09.686Z,5.15
2019-05-30T15:26:37.720Z,3.90
2019-05-30T15:29:08.044Z,8.73
2019-05-30T15:31:37.640Z,4.17
2019-05-30T15:34:08.383Z,4.75
2019-05-30T15:36:38.702Z,8.75
2019-05-30T15:39:08.984Z,3.60
2019-05-30T15:41:39.514Z,6.17
2019-05-30T15:44:09.457Z,8.95
2019-05-30T15:46:38.955Z,6.17
2019-05-30T15:49:08.226Z,8.63
2019-05-30T15:51:37.466Z,5.87
2019-05-30T15:54:08.732Z,9.73
2019-05-30T15:56:40.659Z,6.47
2019-05-30T15:59:09.799Z,7.72
2019-05-30T16:01:38.937Z,5.67
2019-05-30T16:04:08.280Z,7.00
2019-05-30T16:06:37.406Z,12.10
2019-05-30T16:09:07.184Z,6.53
2019-05-30T16:11:36.626Z,9.38
2019-05-30T16:14:05.978Z,5.60
2019-05-30T16:16:40.124Z,8.83
2019-05-30T16:19:17.296Z,8.43
2019-05-30T16:21:38.447Z,13.95
2019-05-30T16:24:09.827Z,8.77
2019-05-30T16:26:39.412Z,7.90
2019-05-30T16:29:09.798Z,5.43
2019-05-30T16:31:39.010Z,6.97
2019-05-30T16:34:08.310Z,6.57
2019-05-30T16:36:37.480Z,8.70
2019-05-30T16:39:07.816Z,11.83
2019-05-30T16:41:42.560Z,7.60
2019-05-30T16:44:08.315Z,15.90
2019-05-30T16:46:39.637Z,12.63
2019-05-30T16:49:08.781Z,6.30
2019-05-30T16:51:38.007Z,9.00
2019-05-30T16:54:07.162Z,8.13
2019-05-30T16:56:36.528Z,12.43
2019-05-30T16:59:06.117Z,14.77
2019-05-30T17:01:35.803Z,10.20
2019-05-30T17:04:05.654Z,9.77
2019-05-30T17:06:34.942Z,14.30
2019-05-30T17:09:05.440Z,13.77
2019-05-30T17:11:36.116Z,10.33
2019-05-30T17:14:05.688Z,11.17
2019-05-30T17:16:34.856Z,15.00
2019-05-30T17:19:04.105Z,11.17
2019-05-30T17:21:33.312Z,8.50
2019-05-30T17:24:02.556Z,10.17
2019-05-30T17:26:31.881Z,11.00
2019-05-30T17:29:01.087Z,13.67
2019-05-30T17:31:30.299Z,15.10
2019-05-30T17:34:00.847Z,10.03
2019-05-30T17:36:30.143Z,10.03
2019-05-30T17:38:59.247Z,9.50
2019-05-30T17:41:29.029Z,9.20
2019-05-30T17:43:58.349Z,10.47
2019-05-30T17:46:27.526Z,9.53
2019-05-30T17:48:56.656Z,8.83
2019-05-30T17:51:25.934Z,11.13
2019-05-30T17:53:55.099Z,10.37
2019-05-30T17:56:24.260Z,9.07
2019-05-30T17:58:53.416Z,10.93
2019-05-30T18:01:22.878Z,10.63
2019-05-30T18:03:52.398Z,8.43
2019-05-30T18:06:22.294Z,7.83
2019-05-30T18:08:51.569Z,6.87
2019-05-30T18:11:20.823Z,6.03
2019-05-30T18:13:50.094Z,7.00
2019-05-30T18:16:19.383Z,9.97
2019-05-30T18:18:48.741Z,12.63
2019-05-30T18:21:19.435Z,8.27
2019-05-30T18:23:48.851Z,8.10
2019-05-30T18:26:18.308Z,10.97
2019-05-30T18:28:50.282Z,10.47
2019-05-30T18:31:19.521Z,7.07
2019-05-30T18:33:49.907Z,9.60
2019-05-30T18:36:19.515Z,8.43
2019-05-30T18:38:48.676Z,5.97
2019-05-30T18:41:17.784Z,8.63
2019-05-30T18:43:48.424Z,7.60
2019-05-30T18:46:17.534Z,6.53
2019-05-30T18:48:46.853Z,7.40
2019-05-30T18:51:15.960Z,8.53
2019-05-30T18:53:45.113Z,10.10
2019-05-30T18:56:14.314Z,9.10
2019-05-30T18:58:43.474Z,9.50
2019-05-30T19:01:13.526Z,7.80
2019-05-30T19:03:42.773Z,6.60
2019-05-30T19:06:11.948Z,6.00
2019-05-30T19:08:41.234Z,6.40
2019-05-30T19:11:26.387Z,8.07
2019-05-30T19:13:41.501Z,6.13
2019-05-30T19:16:10.632Z,8.20
2019-05-30T19:18:39.784Z,8.60
2019-05-30T19:21:08.947Z,4.83
2019-05-30T19:23:39.757Z,6.10
2019-05-30T19:26:09.113Z,6.67
2019-05-30T19:28:38.207Z,8.03
2019-05-30T19:31:07.418Z,8.93
2019-05-30T19:33:37.107Z,5.53
2019-05-30T19:36:06.546Z,4.90
2019-05-30T19:38:35.774Z,8.37
2019-05-30T19:41:07.024Z,6.53
2019-05-30T19:43:36.180Z,6.40
2019-05-30T19:46:05.456Z,8.80
2019-05-30T19:48:34.567Z,8.40
2019-05-30T19:51:03.731Z,9.63
2019-05-30T19:53:32.893Z,5.33
2019-05-30T19:56:02.200Z,8.53
2019-05-30T19:58:33.438Z,7.37
2019-05-30T20:01:03.161Z,7.97
2019-05-30T20:03:38.595Z,9.10
2019-05-30T20:06:03.369Z,6.90
2019-05-30T20:08:47.993Z,8.90
2019-05-30T20:11:03.393Z,11.53
2019-05-30T20:13:33.063Z,7.83
2019-05-30T20:16:03.835Z,5.57
2019-05-30T20:18:33.566Z,7.67
2019-05-30T20:21:02.936Z,6.80
2019-05-30T20:23:47.328Z,7.63
2019-05-30T20:26:06.021Z,11.43
2019-05-30T20:28:35.293Z,8.57
2019-05-30T20:31:04.431Z,5.87
2019-05-30T20:33:34.462Z,6.60
2019-05-30T20:36:05.660Z,4.33
2019-05-30T20:38:34.887Z,9.33
2019-05-30T20:41:04.157Z,7.77
2019-05-30T20:43:33.475Z,11.33
2019-05-30T20:46:03.870Z,8.30
2019-05-30T20:48:33.031Z,9.60
2019-05-30T20:51:02.186Z,8.83
2019-05-30T20:53:31.367Z,7.83
2019-05-30T20:56:00.921Z,8.77
2019-05-30T20:58:30.049Z,10.23
2019-05-30T21:00:59.157Z,6.23
2019-05-30T21:03:28.470Z,10.23
2019-05-30T21:05:58.455Z,7.60
2019-05-30T21:08:27.680Z,7.37
2019-05-30T21:10:58.626Z,10.73
2019-05-30T21:13:29.329Z,7.90
2019-05-30T21:16:00.209Z,6.93
2019-05-30T21:18:29.446Z,7.63
2019-05-30T21:20:58.588Z,8.90
2019-05-30T21:23:27.715Z,13.23
2019-05-30T21:25:56.939Z,14.17
2019-05-30T21:28:26.223Z,14.70
2019-05-30T21:30:55.402Z,13.03
2019-05-30T21:33:24.755Z,27.20
2019-05-30T21:35:53.941Z,11.70
2019-05-30T21:38:23.098Z,15.57
2019-05-30T21:40:52.254Z,17.37
2019-05-30T21:43:21.408Z,14.43
2019-05-30T21:45:52.552Z,7.90
2019-05-30T21:48:22.200Z,13.37
2019-05-30T21:50:51.444Z,13.40
2019-05-30T21:53:20.613Z,6.80
2019-05-30T21:55:50.225Z,11.90
2019-05-30T21:58:19.505Z,15.43
2019-05-30T22:01:32.868Z,55.07
2019-05-30T22:04:02.963Z,13.23
2019-05-30T22:06:32.101Z,8.87
2019-05-30T22:10:01.122Z,7.30
2019-05-30T22:11:32.282Z,16.60
2019-05-30T22:14:01.570Z,27.40
2019-05-30T22:16:31.050Z,12.00
2019-05-30T22:19:00.266Z,16.43
2019-05-30T22:21:29.799Z,10.50
2019-05-30T22:23:58.996Z,12.87
2019-05-30T22:26:28.139Z,10.60
2019-05-30T22:28:57.262Z,13.13
2019-05-30T22:31:27.361Z,12.47
2019-05-30T22:33:58.808Z,9.17
2019-05-30T22:36:28.024Z,11.33
2019-05-30T22:39:09.499Z,9.33
2019-05-30T22:41:38.705Z,13.40
2019-05-30T22:44:07.982Z,14.57
2019-05-30T22:46:37.266Z,10.20
2019-05-30T22:49:06.577Z,13.07
2019-05-30T22:51:35.783Z,14.67
2019-05-30T22:54:05.060Z,13.23
2019-05-30T22:56:34.214Z,13.00
2019-05-30T22:59:03.464Z,12.33
2019-05-30T23:01:32.600Z,11.03
2019-05-30T23:04:01.784Z,15.67
2019-05-30T23:06:30.997Z,17.37
2019-05-30T23:09:00.218Z,15.90
2019-05-30T23:11:31.283Z,11.20
2019-05-30T23:14:00.518Z,12.73
2019-05-30T23:16:29.822Z,17.87
2019-05-30T23:18:59.051Z,17.30
2019-05-30T23:21:28.985Z,17.10
2019-05-30T23:23:58.228Z,15.33
2019-05-30T23:26:27.465Z,15.30
2019-05-30T23:28:58.004Z,13.60
2019-05-30T23:31:30.107Z,17.93
2019-05-30T23:33:59.243Z,16.80
2019-05-30T23:36:29.129Z,12.50
2019-05-30T23:38:58.933Z,12.10
2019-05-30T23:41:28.253Z,20.20
2019-05-30T23:44:08.762Z,15.73
2019-05-30T23:46:28.800Z,19.03
2019-05-30T23:48:59.849Z,12.77
2019-05-30T23:51:29.252Z,13.83
2019-05-30T23:54:00.493Z,17.63
2019-05-30T23:56:29.838Z,15.03
2019-05-30T23:58:59.454Z,13.30
